Station: Viewbank  

  Atmospheric Gas Attenuation - ITU Rec 676-11   ----------------- dB/100km -----------------
Date Time Temp RH % AH g/m3 Dew Point Wind Direction Speed kph Gust kph Barometer mB Rainfall Since 9am 24GHz 47GHz 76GHz 122GHz 134GHz 241GHz
08/05 12:30 15 74 9.49 10.4 19 30 1023.2 0 21.4 27.4 43.2 113.5 109.5 377.5
08/05 12:20 15.1 74 9.55 10.5 13 17 1023.4 0 21.5 27.4 43.4 114.0 110.2 379.9
08/05 12:10 14.8 76 9.63 10.6 17 19 1023.6 0 21.7 27.7 43.9 115.4 111.7 385.2
08/05 12:00 14.4 85 10.51 11.9 13 24 1023.8 0 23.6 29.3 47.9 125.9 124.6 430.0
08/05 11:50 14.4 82 10.14 11.4 11 15 1023.7 0 22.8 28.7 46.3 121.7 119.4 411.8
08/05 11:40 14.2 81 9.89 11 20 26 1023.6 0 22.3 28.3 45.4 119.2 116.2 400.7
08/05 11:30 14.4 76 9.39 10.2 19 32 1023.6 0 21.2 27.4 43.2 113.3 109.1 375.7
08/05 11:20 14.9 82 10.45 11.9 9 11 1023.4 0 23.5 29.0 47.3 124.4 122.9 424.2
08/05 11:10 13.5 91 10.64 12.1 11 15 1023.3 0 24.0 29.8 49.0 128.8 127.9 441.4
08/05 11:00 14.1 85 10.32 11.6 15 24 1023.4 0 23.2 29.1 47.2 124.2 122.3 422.2
08/05 10:50 13.3 89 10.28 11.5 19 22 1023.3 0 23.2 29.3 47.6 125.0 123.1 424.5
08/05 10:40 14.5 75 9.33 10.1 24 33 1023.2 0 21.1 27.3 42.9 112.5 108.1 372.3
08/05 10:30 14.7 73 9.19 9.9 19 30 1023.1 0 20.8 27.0 42.2 110.6 105.9 364.7
08/05 10:20 14.6 75 9.39 10.2 13 19 1023.1 0 21.2 27.3 43.0 113.0 108.7 374.6
08/05 10:10 14.6 75 9.39 10.2 15 20 1023 0 21.2 27.3 43.0 113.0 108.7 374.6
08/05 10:00 14.5 80 9.95 11.1 13 20 1023 0 22.4 28.3 45.4 119.3 116.5 401.9
08/05 09:50 14.2 80 9.77 10.8 11 15 1023 0 22.1 28.1 44.8 117.8 114.5 394.7
08/05 09:40 13.9 82 9.83 10.9 11 17 1022.9 0 22.2 28.3 45.3 118.9 115.8 399.1
08/05 09:30 13.6 85 10 11.1 11 17 1022.8 0 22.6 28.7 46.1 121.3 118.6 408.9
08/05 09:20 13.4 86 10 11.1 13 20 1022.8 0 22.6 28.7 46.3 121.6 118.9 410.0
08/05 09:10 13.4 84 9.77 10.8 15 17 1022.7 0 22.1 28.3 45.3 118.9 115.7 398.7
08/05 09:00 13.4 85 9.88 10.9 13 24 1022.7 0 22.3 28.5 45.7 120.2 117.2 404.1
08/05 08:50 13.1 86 9.81 10.8 11 13 1022.6 5.6 22.2 28.5 45.6 119.8 116.7 402.2
08/05 08:40 13 86 9.75 10.7 13 15 1022.5 5.6 22.1 28.4 45.4 119.3 116.0 399.7
08/05 08:30 12.9 87 9.81 10.8 13 20 1022.4 5.6 22.2 28.5 45.7 120.1 117.0 403.2
08/05 08:20 12.8 88 9.86 10.9 11 11 1022.4 5.6 22.3 28.7 46.0 120.9 117.8 406.1
08/05 08:10 12.7 88 9.8 10.8 19 20 1022.3 5.6 22.2 28.6 45.8 120.3 117.1 403.7
08/05 08:00 12.5 90 9.9 10.9 13 22 1022.1 5.6 22.4 28.8 46.3 121.8 118.8 409.6
08/05 07:50 12.5 90 9.9 10.9 19 26 1021.9 5.6 22.4 28.8 46.3 121.7 118.8 409.5
08/05 07:40 12.5 89 9.79 10.7 17 20 1021.6 5.6 22.2 28.6 45.8 120.4 117.2 404.0
08/05 07:30 12.6 88 9.74 10.7 19 35 1021.4 5.6 22.1 28.5 45.6 119.7 116.3 401.0
08/05 07:20 12.7 86 9.57 10.4 20 28 1021.3 5.6 21.7 28.2 44.8 117.6 113.8 392.1
08/05 07:10 12.7 87 9.69 10.6 19 24 1021.3 5.6 22.0 28.4 45.3 118.9 115.5 398.0
08/05 07:00 12.8 86 9.63 10.5 17 32 1021.1 5.6 21.8 28.2 45.0 118.1 114.5 394.5
08/05 06:50 12.9 85 9.58 10.4 19 26 1021.2 5.6 21.7 28.1 44.7 117.4 113.6 391.5
08/05 06:40 12.8 86 9.63 10.5 17 28 1021 5.6 21.8 28.2 45.0 118.1 114.5 394.4
08/05 06:30 12.9 85 9.58 10.4 19 33 1021 5.6 21.7 28.1 44.7 117.4 113.6 391.5
08/05 06:20 13 85 9.64 10.5 17 22 1021 5.6 21.8 28.2 44.9 117.9 114.3 393.9
08/05 06:10 13.1 85 9.7 10.6 19 24 1020.9 5.6 22.0 28.2 45.1 118.4 115.0 396.3
08/05 06:00 13 85 9.64 10.5 17 26 1020.9 5.6 21.8 28.2 44.9 117.9 114.3 393.9
08/05 05:50 13 85 9.64 10.5 19 24 1020.7 5.6 21.8 28.2 44.9 117.9 114.3 393.8
08/05 05:40 13 85 9.64 10.5 19 24 1020.5 5.6 21.8 28.1 44.9 117.8 114.2 393.7
08/05 05:30 13 85 9.64 10.5 20 32 1020.5 5.6 21.8 28.1 44.9 117.8 114.2 393.7
08/05 05:20 12.9 87 9.81 10.8 15 19 1020.6 5.6 22.2 28.5 45.6 119.9 116.8 402.6
08/05 05:10 13 86 9.75 10.7 24 33 1020.4 5.6 22.1 28.3 45.3 119.1 115.8 399.1
08/05 05:00 12.9 87 9.81 10.8 17 33 1020.3 5.6 22.2 28.5 45.6 119.9 116.8 402.5
08/05 04:50 12.8 87 9.75 10.7 17 24 1020.4 5.6 22.1 28.4 45.4 119.4 116.1 400.1
08/05 04:40 12.8 87 9.75 10.7 15 20 1020.3 5.6 22.1 28.4 45.4 119.4 116.1 400.1
08/05 04:30 12.7 87 9.69 10.6 15 22 1020.3 5.6 22.0 28.3 45.2 118.8 115.4 397.6
08/05 04:20 12.8 86 9.63 10.5 19 26 1020.2 5.6 21.8 28.2 44.9 118.0 114.4 394.2
08/05 04:10 12.8 85 9.52 10.3 19 24 1020.1 5.6 21.6 28.0 44.4 116.7 112.8 388.8
08/05 04:00 12.7 85 9.46 10.2 15 24 1020 5.6 21.5 27.9 44.2 116.2 112.1 386.3
08/05 03:50 12.6 86 9.52 10.3 9 13 1020 5.6 21.6 28.0 44.5 117.0 113.1 389.8
08/05 03:40 12.6 86 9.52 10.3 15 19 1020 5.6 21.6 28.0 44.5 117.0 113.1 389.8
08/05 03:30 12.5 86 9.46 10.2 13 22 1020 5.6 21.5 28.0 44.4 116.5 112.4 387.3
08/05 03:20 12.5 85 9.35 10 13 17 1020 5.6 21.3 27.8 43.9 115.2 110.9 382.0
08/05 03:10 12.5 85 9.35 10 17 24 1019.9 5.6 21.3 27.8 43.9 115.2 110.9 381.9
08/05 03:00 12.3 85 9.23 9.9 11 19 1019.9 5.6 21.0 27.6 43.5 114.2 109.5 377.1
08/05 02:50 12.3 85 9.23 9.9 13 15 1020 5.6 21.0 27.6 43.5 114.2 109.5 377.1
08/05 02:40 12.3 85 9.23 9.9 17 24 1020.1 5.6 21.0 27.7 43.5 114.2 109.5 377.2
08/05 02:30 12.3 85 9.23 9.9 17 26 1020.2 5.6 21.0 27.7 43.5 114.2 109.5 377.2
08/05 02:20 12.2 84 9.07 9.6 17 22 1020 5.6 20.7 27.4 42.9 112.5 107.5 369.9
08/05 02:10 12.1 85 9.12 9.7 17 22 1020 5.6 20.8 27.5 43.1 113.2 108.3 372.8
08/05 02:00 12.1 85 9.12 9.7 15 26 1020.2 5.6 20.8 27.5 43.1 113.3 108.3 372.8
08/05 01:50 12.1 85 9.12 9.7 17 20 1020.3 5.6 20.8 27.5 43.2 113.3 108.3 372.9
08/05 01:40 12 85 9.06 9.6 20 22 1020.3 5.6 20.7 27.5 43.0 112.8 107.6 370.4
08/05 01:30 12 85 9.06 9.6 17 24 1020.5 5.6 20.7 27.5 43.0 112.8 107.6 370.5
08/05 01:20 12 84 8.95 9.4 19 22 1020.5 5.6 20.4 27.3 42.5 111.5 106.1 365.2
08/05 01:10 12 84 8.95 9.4 15 17 1020.6 5.6 20.4 27.3 42.5 111.6 106.1 365.2
08/05 01:00 12 84 8.95 9.4 17 32 1020.7 5.6 20.4 27.3 42.5 111.6 106.1 365.2
08/05 00:50 11.8 85 8.95 9.4 13 19 1020.8 5.6 20.4 27.4 42.6 111.9 106.4 366.2
08/05 00:40 11.8 84 8.84 9.2 19 22 1020.9 5.6 20.2 27.2 42.2 110.6 104.9 360.9
08/05 00:30 11.6 84 8.73 9 13 26 1020.9 5.6 20.0 27.1 41.8 109.7 103.7 356.5
08/05 00:20 11.5 85 8.78 9.1 7 9 1020.9 5.6 20.1 27.2 42.1 110.4 104.5 359.4
08/05 00:10 11.4 85 8.73 9 11 13 1021 5.6 20.0 27.1 41.9 110.0 103.9 357.5
08/05 00:00 11.4 84 8.62 8.8 11 20 1021 5.6 19.7 26.9 41.5 108.8 102.4 352.2
07/05 23:50 11.4 84 8.62 8.8 13 17 1021.1 5.6 19.7 26.9 41.5 108.8 102.4 352.2
07/05 23:40 11.3 84 8.57 8.7 13 17 1021.3 5.6 19.6 26.9 41.3 108.4 101.9 350.3
07/05 23:30 11.1 85 8.56 8.7 13 22 1021.3 5.6 19.6 26.9 41.4 108.5 102.0 350.7
07/05 23:20 11 86 8.61 8.8 11 15 1021.6 5.6 19.7 27.1 41.7 109.3 102.9 353.7
07/05 23:10 10.8 86 8.5 8.6 11 15 1021.8 5.6 19.5 26.9 41.3 108.3 101.6 349.3
07/05 23:00 10.7 87 8.55 8.6 15 26 1021.8 5.6 19.6 27.1 41.6 109.0 102.5 352.2
07/05 22:50 10.6 87 8.49 8.5 11 13 1021.9 5.6 19.5 27.0 41.4 108.5 101.8 349.8
07/05 22:40 10.9 84 8.36 8.3 11 15 1022 5.6 19.2 26.7 40.7 106.7 99.6 342.2
07/05 22:30 11 81 8.11 7.9 13 20 1022.1 5.4 18.7 26.2 39.6 103.8 96.1 329.9
07/05 22:20 11 81 8.11 7.9 13 17 1022.1 5.4 18.7 26.2 39.6 103.8 96.1 329.9
07/05 22:10 10.9 82 8.16 8 13 15 1022.2 5.4 18.8 26.4 39.9 104.5 96.9 332.7
07/05 22:00 10.9 81 8.06 7.8 17 24 1022.3 5.4 18.6 26.2 39.5 103.4 95.5 328.0
07/05 21:50 10.8 81 8.01 7.7 15 20 1022.2 5.4 18.5 26.1 39.3 102.9 95.0 326.0
07/05 21:40 10.8 82 8.11 7.9 19 24 1022.3 5.4 18.7 26.3 39.7 104.1 96.3 330.8
07/05 21:30 10.6 83 8.1 7.8 15 28 1022.3 5.4 18.7 26.4 39.8 104.2 96.5 331.1
07/05 21:20 10.3 85 8.14 7.9 13 17 1022.2 5.4 18.8 26.5 40.1 105.0 97.4 334.3
07/05 21:10 10.1 87 8.23 8 9 13 1022.2 5.4 19.0 26.7 40.6 106.3 98.9 339.5
07/05 21:00 10 89 8.36 8.3 9 20 1022.3 5.4 19.2 27.0 41.2 107.9 100.8 346.3
07/05 20:50 9.8 92 8.54 8.6 7 9 1022.4 5.4 19.6 27.3 42.0 110.3 103.6 356.0
07/05 20:40 9.7 92 8.48 8.5 9 13 1022.5 5.4 19.5 27.3 41.8 109.7 102.9 353.5
07/05 20:30 9.8 90 8.35 8.2 15 22 1022.7 5.4 19.2 27.0 41.2 108.1 101.0 346.8
07/05 20:20 10 87 8.18 7.9 19 24 1022.8 5.2 18.9 26.7 40.4 106.0 98.4 337.7
07/05 20:10 10.6 81 7.91 7.5 19 26 1022.9 5.2 18.3 26.1 39.0 102.2 93.9 322.3
07/05 20:00 10.9 76 7.56 6.8 20 43 1022.7 5.2 17.5 25.4 37.4 98.0 88.9 304.6

Last Refresh: 08-May-2026 12:08:49

Bureau of Meteorology